createdAt,value
2019-01-12T00:00:25.722Z,7.87
2019-01-12T00:02:55.322Z,2.60
2019-01-12T00:05:23.653Z,2.80
2019-01-12T00:07:51.980Z,2.27
2019-01-12T00:10:20.319Z,3.50
2019-01-12T00:12:48.658Z,6.30
2019-01-12T00:15:17.056Z,3.47
2019-01-12T00:17:45.398Z,4.97
2019-01-12T00:20:13.721Z,3.80
2019-01-12T00:22:42.052Z,4.17
2019-01-12T00:25:10.400Z,2.87
2019-01-12T00:27:38.732Z,4.40
2019-01-12T00:30:08.939Z,5.80
2019-01-12T00:32:37.272Z,5.57
2019-01-12T00:35:05.617Z,1.23
2019-01-12T00:37:33.954Z,1.67
2019-01-12T00:40:02.296Z,4.03
2019-01-12T00:42:32.253Z,1.07
2019-01-12T00:45:00.594Z,3.70
2019-01-12T00:47:28.938Z,4.57
2019-01-12T00:49:58.896Z,5.33
2019-01-12T00:52:27.260Z,2.80
2019-01-12T00:54:55.607Z,7.07
2019-01-12T00:57:23.949Z,1.70
2019-01-12T00:59:52.277Z,4.10
2019-01-12T01:02:21.697Z,5.33
2019-01-12T01:04:50.033Z,3.57
2019-01-12T01:07:18.369Z,4.13
2019-01-12T01:09:46.716Z,3.07
2019-01-12T01:12:15.045Z,4.67
2019-01-12T01:14:43.384Z,4.93
2019-01-12T01:17:13.070Z,5.60
2019-01-12T01:19:41.482Z,1.30
2019-01-12T01:22:09.898Z,4.27
2019-01-12T01:24:38.241Z,4.07
2019-01-12T01:27:06.582Z,1.47
2019-01-12T01:29:34.907Z,6.87
2019-01-12T01:32:03.258Z,7.03
2019-01-12T01:34:31.585Z,4.27
2019-01-12T01:36:59.927Z,4.83
2019-01-12T01:39:28.257Z,4.97
2019-01-12T01:41:56.598Z,4.57
2019-01-12T01:44:24.917Z,3.73
2019-01-12T01:46:53.260Z,2.33
2019-01-12T01:49:21.600Z,3.57
2019-01-12T01:51:49.940Z,2.93
2019-01-12T01:54:18.285Z,3.80
2019-01-12T01:56:46.627Z,11.17
2019-01-12T01:59:14.969Z,10.97
2019-01-12T02:01:43.306Z,2.63
2019-01-12T02:04:11.704Z,5.17
2019-01-12T02:06:42.084Z,8.93
2019-01-12T02:09:10.435Z,3.43
2019-01-12T02:11:38.757Z,5.50
2019-01-12T02:14:07.089Z,3.70
2019-01-12T02:16:35.416Z,5.70
2019-01-12T02:19:03.766Z,2.87
2019-01-12T02:21:32.095Z,7.03
2019-01-12T02:24:00.420Z,4.07
2019-01-12T02:26:28.763Z,6.60
2019-01-12T02:28:57.089Z,3.73
2019-01-12T02:31:25.426Z,7.87
2019-01-12T02:33:53.790Z,2.57
2019-01-12T02:36:22.118Z,4.93
2019-01-12T02:38:50.454Z,8.03
2019-01-12T02:41:18.790Z,8.27
2019-01-12T02:43:47.126Z,2.43
2019-01-12T02:46:17.215Z,3.80
2019-01-12T02:48:45.509Z,7.47
2019-01-12T02:51:13.842Z,2.77
2019-01-12T02:53:42.174Z,9.87
2019-01-12T02:56:10.521Z,3.97
2019-01-12T02:58:38.849Z,7.63
2019-01-12T03:01:07.193Z,4.73
2019-01-12T03:03:35.525Z,5.47
2019-01-12T03:06:03.870Z,4.70
2019-01-12T03:08:32.184Z,5.90
2019-01-12T03:11:00.516Z,5.57
2019-01-12T03:13:28.847Z,8.03
2019-01-12T03:15:57.193Z,7.27
2019-01-12T03:18:25.520Z,8.20
2019-01-12T03:20:53.859Z,5.60
2019-01-12T03:23:22.203Z,6.73
2019-01-12T03:25:50.542Z,6.37
2019-01-12T03:28:18.879Z,9.00
2019-01-12T03:30:47.244Z,7.13
2019-01-12T03:33:15.634Z,8.70
2019-01-12T03:35:43.975Z,14.13
2019-01-12T03:38:12.307Z,8.63
2019-01-12T03:40:40.650Z,11.23
2019-01-12T03:43:08.999Z,10.73
2019-01-12T03:45:37.339Z,11.47
2019-01-12T03:48:05.685Z,14.33
2019-01-12T03:50:34.018Z,8.13
2019-01-12T03:53:02.352Z,17.17
2019-01-12T03:55:30.694Z,14.17
2019-01-12T03:57:59.052Z,12.80
2019-01-12T04:00:28.230Z,12.03
2019-01-12T04:02:56.577Z,14.73
2019-01-12T04:05:25.914Z,8.63
2019-01-12T04:07:54.248Z,8.57
2019-01-12T04:10:22.595Z,14.87
2019-01-12T04:12:50.944Z,12.37
2019-01-12T04:15:19.281Z,11.60
2019-01-12T04:17:47.625Z,13.70
2019-01-12T04:20:16.326Z,17.67
2019-01-12T04:22:44.676Z,10.37
2019-01-12T04:25:13.088Z,17.90
2019-01-12T04:27:42.577Z,19.40
2019-01-12T04:30:12.300Z,25.90
2019-01-12T04:32:40.691Z,14.63
2019-01-12T04:35:09.037Z,21.83
2019-01-12T04:37:37.378Z,24.70
2019-01-12T04:40:07.366Z,25.63
2019-01-12T04:42:35.756Z,22.67
2019-01-12T04:45:05.310Z,21.20
2019-01-12T04:47:33.660Z,23.27
2019-01-12T04:50:02.011Z,19.97
2019-01-12T04:52:30.352Z,15.83
2019-01-12T04:54:58.706Z,26.30
2019-01-12T04:57:27.057Z,28.93
2019-01-12T04:59:55.413Z,27.37
2019-01-12T05:02:23.763Z,24.47
2019-01-12T05:04:52.111Z,22.37
2019-01-12T05:07:20.466Z,27.40
2019-01-12T05:09:48.818Z,29.03
2019-01-12T05:12:17.172Z,21.93
2019-01-12T05:14:45.535Z,25.30
2019-01-12T05:17:13.880Z,21.60
2019-01-12T05:19:42.239Z,16.17
2019-01-12T05:22:10.658Z,17.60
2019-01-12T05:24:40.085Z,27.97
2019-01-12T05:27:08.444Z,29.17
2019-01-12T05:29:36.799Z,28.33
2019-01-12T05:32:05.155Z,25.70
2019-01-12T05:34:33.507Z,24.40
2019-01-12T05:37:01.862Z,21.53
2019-01-12T05:39:30.213Z,23.33
2019-01-12T05:41:58.574Z,15.60
2019-01-12T05:44:26.921Z,21.67
2019-01-12T05:46:55.265Z,24.07
2019-01-12T05:49:23.642Z,19.37
2019-01-12T05:51:51.977Z,23.67
2019-01-12T05:54:20.335Z,21.27
2019-01-12T05:56:48.686Z,22.63
2019-01-12T05:59:17.033Z,17.60
2019-01-12T06:01:45.373Z,12.17
2019-01-12T06:04:14.826Z,17.73
2019-01-12T06:06:43.169Z,15.17
2019-01-12T06:09:11.514Z,13.93
2019-01-12T06:11:39.990Z,17.23
2019-01-12T06:14:08.339Z,17.47
2019-01-12T06:16:36.677Z,18.40
2019-01-12T06:19:05.022Z,13.53
2019-01-12T06:21:33.376Z,15.27
2019-01-12T06:24:01.715Z,14.10
2019-01-12T06:26:30.056Z,12.03
2019-01-12T06:28:58.678Z,11.20
2019-01-12T06:31:27.008Z,12.30
2019-01-12T06:33:55.358Z,11.53
2019-01-12T06:36:23.698Z,13.20
2019-01-12T06:38:52.061Z,11.87
2019-01-12T06:41:20.417Z,14.10
2019-01-12T06:43:51.250Z,12.70
2019-01-12T06:46:19.598Z,12.93
2019-01-12T06:48:47.941Z,13.43
2019-01-12T06:51:16.293Z,14.67
2019-01-12T06:53:44.630Z,9.33
2019-01-12T06:56:12.958Z,13.53
2019-01-12T06:58:41.298Z,10.83
2019-01-12T07:01:09.643Z,9.10
2019-01-12T07:03:37.988Z,7.90
2019-01-12T07:06:07.999Z,12.13
2019-01-12T07:08:36.710Z,9.90
2019-01-12T07:11:06.239Z,12.17
2019-01-12T07:13:34.581Z,5.73
2019-01-12T07:16:02.917Z,17.30
2019-01-12T07:18:32.530Z,12.60
2019-01-12T07:21:00.884Z,11.73
2019-01-12T07:23:32.258Z,12.37
2019-01-12T07:26:01.422Z,13.23
2019-01-12T07:28:29.787Z,15.07
2019-01-12T07:30:58.136Z,12.73
2019-01-12T07:33:28.989Z,15.50
2019-01-12T07:35:57.346Z,13.33
2019-01-12T07:38:25.682Z,11.73
2019-01-12T07:40:54.025Z,9.13
2019-01-12T07:43:22.362Z,14.13
2019-01-12T07:45:50.709Z,13.23
2019-01-12T07:48:19.048Z,15.17
2019-01-12T07:50:47.406Z,13.23
2019-01-12T07:53:15.753Z,12.43
2019-01-12T07:55:44.098Z,15.53
2019-01-12T07:58:12.449Z,16.47
2019-01-12T08:00:40.789Z,15.27
2019-01-12T08:03:09.139Z,24.00
2019-01-12T08:05:37.474Z,16.37
2019-01-12T08:08:05.903Z,18.60
2019-01-12T08:10:34.234Z,13.47
2019-01-12T08:13:02.651Z,19.47
2019-01-12T08:15:30.996Z,16.97
2019-01-12T08:17:59.417Z,20.10
2019-01-12T08:20:27.752Z,19.73
2019-01-12T08:22:56.285Z,11.87
2019-01-12T08:25:26.278Z,12.10
2019-01-12T08:27:55.687Z,17.50
2019-01-12T08:30:24.038Z,21.50
2019-01-12T08:32:52.381Z,24.30
2019-01-12T08:35:20.722Z,15.07
2019-01-12T08:37:49.130Z,13.37
2019-01-12T08:40:17.466Z,25.23
2019-01-12T08:42:45.809Z,17.73
2019-01-12T08:45:14.405Z,16.67
2019-01-12T08:47:42.749Z,20.87
2019-01-12T08:50:12.567Z,23.10
2019-01-12T08:52:40.981Z,11.33
2019-01-12T08:55:10.193Z,24.10
2019-01-12T08:57:38.536Z,16.70
2019-01-12T09:00:08.498Z,20.63
2019-01-12T09:02:37.911Z,19.57
2019-01-12T09:05:06.259Z,23.47
2019-01-12T09:07:34.700Z,22.87
2019-01-12T09:10:03.574Z,12.53
2019-01-12T09:12:31.919Z,19.17
2019-01-12T09:15:00.249Z,18.00
2019-01-12T09:17:29.627Z,20.20
2019-01-12T09:19:57.983Z,20.07
2019-01-12T09:22:26.333Z,22.87
2019-01-12T09:24:54.676Z,23.83
2019-01-12T09:27:24.193Z,28.50
2019-01-12T09:29:52.546Z,16.07
2019-01-12T09:32:20.889Z,22.20
2019-01-12T09:34:49.262Z,22.60
2019-01-12T09:37:17.600Z,11.47
2019-01-12T09:39:45.954Z,21.37
2019-01-12T09:42:14.309Z,13.50
2019-01-12T09:44:42.653Z,24.50
2019-01-12T09:47:11.006Z,16.20
2019-01-12T09:49:41.695Z,15.07
2019-01-12T09:52:10.042Z,15.90
2019-01-12T09:54:38.392Z,20.77
2019-01-12T09:57:06.744Z,21.30
2019-01-12T09:59:35.097Z,14.63
2019-01-12T10:02:03.440Z,17.50
2019-01-12T10:04:31.798Z,11.63
2019-01-12T10:07:00.155Z,17.17
2019-01-12T10:09:28.475Z,20.70
2019-01-12T10:11:56.841Z,10.10
2019-01-12T10:14:25.520Z,15.97
2019-01-12T10:16:53.865Z,13.20
2019-01-12T10:19:24.909Z,14.73
2019-01-12T10:21:54.906Z,10.43
2019-01-12T10:24:25.300Z,21.10
2019-01-12T10:26:58.568Z,22.87
2019-01-12T10:29:25.097Z,12.23
2019-01-12T10:31:53.439Z,18.20
2019-01-12T10:34:22.373Z,9.80
2019-01-12T10:36:50.713Z,10.73
2019-01-12T10:39:19.685Z,16.90
2019-01-12T10:41:48.057Z,12.77
2019-01-12T10:44:16.415Z,14.70
2019-01-12T10:46:44.746Z,15.23
2019-01-12T10:49:13.087Z,13.87
2019-01-12T10:51:41.433Z,11.53
2019-01-12T10:54:09.783Z,15.10
2019-01-12T10:56:38.112Z,10.23
2019-01-12T10:59:06.535Z,7.00
2019-01-12T11:01:34.868Z,11.00
2019-01-12T11:04:03.217Z,9.33
2019-01-12T11:06:31.553Z,9.73
2019-01-12T11:09:00.588Z,12.10
2019-01-12T11:11:29.094Z,5.57
2019-01-12T11:13:57.436Z,8.50
2019-01-12T11:16:25.775Z,6.50
2019-01-12T11:18:54.108Z,10.97
2019-01-12T11:21:22.455Z,9.90
2019-01-12T11:23:50.793Z,16.47
2019-01-12T11:26:19.125Z,8.43
2019-01-12T11:28:47.469Z,15.70
2019-01-12T11:31:19.767Z,4.10
2019-01-12T11:33:45.845Z,8.60
2019-01-12T11:36:14.168Z,7.53
2019-01-12T11:38:42.514Z,5.57
2019-01-12T11:41:10.835Z,5.73
2019-01-12T11:43:39.168Z,3.53
2019-01-12T11:46:07.599Z,7.93
2019-01-12T11:48:37.839Z,11.87
2019-01-12T11:51:09.328Z,6.40
2019-01-12T11:53:38.299Z,6.27
2019-01-12T11:56:07.756Z,5.10
2019-01-12T11:58:36.098Z,7.17
2019-01-12T12:01:04.493Z,7.13
2019-01-12T12:03:32.906Z,9.23
2019-01-12T12:06:01.233Z,5.50
2019-01-12T12:08:29.564Z,6.33
2019-01-12T12:10:57.903Z,8.20
2019-01-12T12:13:26.270Z,4.37
2019-01-12T12:15:55.217Z,7.77
2019-01-12T12:18:23.549Z,5.40
2019-01-12T12:20:51.896Z,10.93
2019-01-12T12:23:20.237Z,4.13
2019-01-12T12:25:49.550Z,12.23
2019-01-12T12:28:17.896Z,7.73
2019-01-12T12:30:46.247Z,12.47
2019-01-12T12:33:16.265Z,13.93
2019-01-12T12:35:44.722Z,11.33
2019-01-12T12:38:13.064Z,16.47
2019-01-12T12:40:43.035Z,15.43
2019-01-12T12:43:11.369Z,4.93
2019-01-12T12:45:40.773Z,9.13
2019-01-12T12:48:09.103Z,5.50
2019-01-12T12:50:37.440Z,12.57
2019-01-12T12:53:05.778Z,17.03
2019-01-12T12:55:34.153Z,10.23
2019-01-12T12:58:02.492Z,14.37
2019-01-12T13:00:30.889Z,8.47
2019-01-12T13:02:59.342Z,15.07
2019-01-12T13:05:27.863Z,23.43
2019-01-12T13:07:56.184Z,6.10
2019-01-12T13:10:26.170Z,11.07
2019-01-12T13:12:54.515Z,10.90
2019-01-12T13:15:22.858Z,15.97
2019-01-12T13:17:51.210Z,12.77
2019-01-12T13:20:20.605Z,5.13
2019-01-12T13:22:49.491Z,11.30
2019-01-12T13:25:18.053Z,5.37
2019-01-12T13:27:46.782Z,18.23
2019-01-12T13:30:16.460Z,10.90
2019-01-12T13:32:44.889Z,9.63
2019-01-12T13:35:13.213Z,16.93
2019-01-12T13:37:41.555Z,10.63
2019-01-12T13:40:11.466Z,11.63
2019-01-12T13:42:39.814Z,21.27
2019-01-12T13:45:11.050Z,9.97
2019-01-12T13:47:39.421Z,3.93
2019-01-12T13:50:09.253Z,7.77
2019-01-12T13:52:37.596Z,7.83
2019-01-12T13:55:07.515Z,9.83
2019-01-12T13:57:37.643Z,8.83
2019-01-12T14:00:13.739Z,8.63
2019-01-12T14:02:42.076Z,5.87
2019-01-12T14:05:10.424Z,11.83
2019-01-12T14:07:39.006Z,8.13
2019-01-12T14:10:08.981Z,12.00
2019-01-12T14:12:38.607Z,14.67
2019-01-12T14:15:08.726Z,25.37
2019-01-12T14:17:37.150Z,187.97
2019-01-12T14:20:07.148Z,140.47
2019-01-12T14:22:35.572Z,81.30
2019-01-12T14:25:05.049Z,147.97
2019-01-12T14:27:33.401Z,121.63
2019-01-12T14:30:01.746Z,10.53
2019-01-12T14:32:30.199Z,14.53
2019-01-12T14:34:59.450Z,44.20
2019-01-12T14:37:27.807Z,14.97
2019-01-12T14:39:56.162Z,53.83
2019-01-12T14:42:24.509Z,10.17
2019-01-12T14:44:52.850Z,72.07
2019-01-12T14:47:21.204Z,36.77
2019-01-12T14:49:49.546Z,20.20
2019-01-12T14:52:17.918Z,28.90
2019-01-12T14:54:46.271Z,14.30
2019-01-12T14:57:14.728Z,25.07
2019-01-12T14:59:43.078Z,18.87
2019-01-12T15:02:11.502Z,9.83
2019-01-12T15:04:42.293Z,8.87
2019-01-12T15:07:10.689Z,15.03
2019-01-12T15:09:39.102Z,15.17
2019-01-12T15:12:07.478Z,17.20
2019-01-12T15:14:36.902Z,10.53
2019-01-12T15:17:05.550Z,11.80
2019-01-12T15:19:33.889Z,9.83
2019-01-12T15:22:02.227Z,12.10
2019-01-12T15:24:30.574Z,7.13
2019-01-12T15:26:58.902Z,9.20
2019-01-12T15:29:27.255Z,10.40
2019-01-12T15:31:55.610Z,8.83
2019-01-12T15:34:23.957Z,12.80
2019-01-12T15:36:52.306Z,10.83
2019-01-12T15:39:20.642Z,8.97
2019-01-12T15:41:48.984Z,8.77
2019-01-12T15:44:17.314Z,5.70
2019-01-12T15:46:45.654Z,4.10
2019-01-12T15:49:13.973Z,5.20
2019-01-12T15:51:42.322Z,3.70
2019-01-12T15:54:10.669Z,7.17
2019-01-12T15:56:39.014Z,4.93
2019-01-12T15:59:07.349Z,6.57
2019-01-12T16:01:35.684Z,8.00
2019-01-12T16:04:04.018Z,12.40
2019-01-12T16:06:32.365Z,10.43
2019-01-12T16:09:00.706Z,15.67
2019-01-12T16:11:29.918Z,8.00
2019-01-12T16:13:58.252Z,8.57
2019-01-12T16:16:26.594Z,10.23
2019-01-12T16:18:54.930Z,10.60
2019-01-12T16:21:23.273Z,13.83
2019-01-12T16:23:51.633Z,14.53
2019-01-12T16:26:19.973Z,7.63
2019-01-12T16:28:48.313Z,12.00
2019-01-12T16:31:16.686Z,6.80
2019-01-12T16:33:45.026Z,12.33
2019-01-12T16:36:13.382Z,19.67
2019-01-12T16:38:41.716Z,9.17
2019-01-12T16:41:10.218Z,11.80
2019-01-12T16:43:38.577Z,9.80
2019-01-12T16:46:06.982Z,12.83
2019-01-12T16:48:35.310Z,10.97
2019-01-12T16:51:03.718Z,12.40
2019-01-12T16:53:32.092Z,15.27
2019-01-12T16:56:00.492Z,11.27
2019-01-12T16:58:30.683Z,10.10
2019-01-12T17:00:59.080Z,9.53
2019-01-12T17:03:27.418Z,12.50
2019-01-12T17:05:55.830Z,8.40
2019-01-12T17:08:24.238Z,7.30
2019-01-12T17:10:52.864Z,2.37
2019-01-12T17:13:22.476Z,7.43
2019-01-12T17:15:50.831Z,12.23
2019-01-12T17:18:19.260Z,5.53
2019-01-12T17:20:47.602Z,9.27
2019-01-12T17:23:18.772Z,13.67
2019-01-12T17:25:47.122Z,15.53
2019-01-12T17:28:15.539Z,16.57
2019-01-12T17:30:43.878Z,14.53
2019-01-12T17:33:12.231Z,12.27
2019-01-12T17:35:40.580Z,17.17
2019-01-12T17:38:09.034Z,9.33
2019-01-12T17:40:37.420Z,11.17
2019-01-12T17:43:05.767Z,5.97
2019-01-12T17:45:34.169Z,15.77
2019-01-12T17:48:02.526Z,11.50
2019-01-12T17:50:30.865Z,16.67
2019-01-12T17:52:59.296Z,8.13
2019-01-12T17:55:27.698Z,8.47
2019-01-12T17:57:56.047Z,10.00
2019-01-12T18:00:26.804Z,13.10
2019-01-12T18:02:55.301Z,4.10
2019-01-12T18:05:23.967Z,10.47
2019-01-12T18:07:52.321Z,7.37
2019-01-12T18:10:20.722Z,16.50
2019-01-12T18:12:49.066Z,7.97
2019-01-12T18:15:17.385Z,14.20
2019-01-12T18:17:45.788Z,9.87
2019-01-12T18:20:15.759Z,15.40
2019-01-12T18:22:44.134Z,6.03
2019-01-12T18:25:12.629Z,13.90
2019-01-12T18:27:42.045Z,10.47
2019-01-12T18:30:12.035Z,13.40
2019-01-12T18:32:40.363Z,8.77
2019-01-12T18:35:08.687Z,8.40
2019-01-12T18:37:37.034Z,15.07
2019-01-12T18:40:07.002Z,7.70
2019-01-12T18:42:35.466Z,8.60
2019-01-12T18:45:04.583Z,11.53
2019-01-12T18:47:32.914Z,8.23
2019-01-12T18:50:01.254Z,13.20
2019-01-12T18:52:29.581Z,13.50
2019-01-12T18:54:57.933Z,13.17
2019-01-12T18:57:26.269Z,17.03
2019-01-12T18:59:54.621Z,9.37
2019-01-12T19:02:23.079Z,5.57
2019-01-12T19:04:51.483Z,11.77
2019-01-12T19:07:19.854Z,17.57
2019-01-12T19:09:48.202Z,16.97
2019-01-12T19:12:16.613Z,9.60
2019-01-12T19:14:44.962Z,12.20
2019-01-12T19:17:13.390Z,9.33
2019-01-12T19:19:41.722Z,11.83
2019-01-12T19:22:10.098Z,11.47
2019-01-12T19:24:38.461Z,17.93
2019-01-12T19:27:06.798Z,6.07
2019-01-12T19:29:35.177Z,11.77
2019-01-12T19:32:03.630Z,5.93
2019-01-12T19:34:31.990Z,17.47
2019-01-12T19:37:00.409Z,16.27
2019-01-12T19:39:28.758Z,13.23
2019-01-12T19:41:57.089Z,17.83
2019-01-12T19:44:25.545Z,13.00
2019-01-12T19:46:53.882Z,9.07
2019-01-12T19:49:22.394Z,10.03
2019-01-12T19:51:50.738Z,7.37
2019-01-12T19:54:19.317Z,13.83
2019-01-12T19:56:47.662Z,14.60
2019-01-12T19:59:16.263Z,14.57
2019-01-12T20:01:45.070Z,13.27
2019-01-12T20:04:13.466Z,14.80
2019-01-12T20:06:41.821Z,15.43
2019-01-12T20:09:10.254Z,11.87
2019-01-12T20:11:38.891Z,13.47
2019-01-12T20:14:07.225Z,4.93
2019-01-12T20:16:35.686Z,7.00
2019-01-12T20:19:04.018Z,19.63
2019-01-12T20:21:32.415Z,17.43
2019-01-12T20:24:00.822Z,16.03
2019-01-12T20:26:29.163Z,13.77
2019-01-12T20:28:57.559Z,8.37
2019-01-12T20:31:42.727Z,15.70
2019-01-12T20:34:12.712Z,15.97
2019-01-12T20:36:51.849Z,12.33
2019-01-12T20:39:22.089Z,10.90
2019-01-12T20:41:52.301Z,12.53
2019-01-12T20:44:37.265Z,11.93
2019-01-12T20:47:07.222Z,9.47
2019-01-12T20:49:37.190Z,16.53
2019-01-12T20:52:09.969Z,11.90
2019-01-12T20:54:45.829Z,12.00
2019-01-12T20:57:21.713Z,11.93
2019-01-12T21:00:03.822Z,15.33
2019-01-12T21:02:43.041Z,9.43
2019-01-12T21:05:15.685Z,15.30
2019-01-12T21:07:45.737Z,12.70
2019-01-12T21:10:27.639Z,8.97
2019-01-12T21:13:14.144Z,8.93
2019-01-12T21:15:44.102Z,15.87
2019-01-12T21:18:12.435Z,15.17
2019-01-12T21:20:40.782Z,15.80
2019-01-12T21:23:09.122Z,20.13
2019-01-12T21:25:37.464Z,15.17
2019-01-12T21:28:05.805Z,11.87
2019-01-12T21:30:34.149Z,11.07
2019-01-12T21:33:02.757Z,10.57
2019-01-12T21:35:31.113Z,14.23
2019-01-12T21:37:59.513Z,13.57
2019-01-12T21:40:27.899Z,14.97
2019-01-12T21:42:56.581Z,15.53
2019-01-12T21:45:24.930Z,16.50
2019-01-12T21:47:53.265Z,8.00
2019-01-12T21:50:21.701Z,18.57
2019-01-12T21:52:50.312Z,10.87
2019-01-12T21:55:18.663Z,13.40
2019-01-12T21:57:47.138Z,12.90
2019-01-12T22:00:16.553Z,12.13
2019-01-12T22:02:45.402Z,3.23
2019-01-12T22:05:13.840Z,19.60
2019-01-12T22:07:42.197Z,15.87
2019-01-12T22:10:18.841Z,11.40
2019-01-12T22:12:42.274Z,17.73
2019-01-12T22:15:12.515Z,15.47
2019-01-12T22:17:40.856Z,12.30
2019-01-12T22:20:13.503Z,23.67
2019-01-12T22:22:41.833Z,9.83
2019-01-12T22:25:10.165Z,13.83
2019-01-12T22:27:38.516Z,16.20
2019-01-12T22:30:11.166Z,19.40
2019-01-12T22:32:39.508Z,15.20
2019-01-12T22:35:08.309Z,9.47
2019-01-12T22:37:36.651Z,12.83
2019-01-12T22:40:06.624Z,14.00
2019-01-12T22:42:34.975Z,11.70
2019-01-12T22:45:03.322Z,11.43
2019-01-12T22:47:32.144Z,16.70
2019-01-12T22:50:00.545Z,8.13
2019-01-12T22:52:28.890Z,15.17
2019-01-12T22:54:57.229Z,18.23
2019-01-12T22:57:25.573Z,16.37
2019-01-12T22:59:57.054Z,15.93
2019-01-12T23:02:24.117Z,9.87
2019-01-12T23:04:52.449Z,17.70
2019-01-12T23:07:20.794Z,16.00
2019-01-12T23:09:49.140Z,14.37
2019-01-12T23:12:17.531Z,13.43
2019-01-12T23:14:45.945Z,14.07
2019-01-12T23:17:14.284Z,18.60
2019-01-12T23:19:42.692Z,16.07
2019-01-12T23:22:11.060Z,6.87
2019-01-12T23:24:39.408Z,16.50
2019-01-12T23:27:07.778Z,11.10
2019-01-12T23:29:36.118Z,13.93
2019-01-12T23:32:04.837Z,15.03
2019-01-12T23:34:33.181Z,8.73
2019-01-12T23:37:01.517Z,15.23
2019-01-12T23:39:30.264Z,20.57
2019-01-12T23:41:58.973Z,13.27
2019-01-12T23:44:27.330Z,11.53
2019-01-12T23:46:55.734Z,15.03
2019-01-12T23:49:24.082Z,16.27
2019-01-12T23:51:52.468Z,25.93
2019-01-12T23:54:20.901Z,17.67
2019-01-12T23:56:49.282Z,18.63
2019-01-12T23:59:17.741Z,15.57
